sensor_id;sensor_type;location;lat;lon;timestamp;P1;durP1;ratioP1;P2;durP2;ratioP2
73585;SDS011;61865;50.232;18.614;2022-11-25T00:01:59;143.20;;;67.53;;
73585;SDS011;61865;50.232;18.614;2022-11-25T00:04:23;134.00;;;65.93;;
73585;SDS011;61865;50.232;18.614;2022-11-25T00:06:45;217.68;;;91.65;;
73585;SDS011;61865;50.232;18.614;2022-11-25T00:09:08;177.80;;;84.03;;
73585;SDS011;61865;50.232;18.614;2022-11-25T00:11:33;182.48;;;79.85;;
73585;SDS011;61865;50.232;18.614;2022-11-25T00:13:56;163.48;;;75.05;;
73585;SDS011;61865;50.232;18.614;2022-11-25T00:16:18;160.02;;;73.93;;
73585;SDS011;61865;50.232;18.614;2022-11-25T00:18:42;167.10;;;76.47;;
73585;SDS011;61865;50.232;18.614;2022-11-25T00:21:06;187.38;;;78.22;;
73585;SDS011;61865;50.232;18.614;2022-11-25T00:23:29;150.90;;;73.82;;
73585;SDS011;61865;50.232;18.614;2022-11-25T00:25:51;171.48;;;80.10;;
73585;SDS011;61865;50.232;18.614;2022-11-25T00:28:13;179.88;;;81.80;;
73585;SDS011;61865;50.232;18.614;2022-11-25T00:30:36;173.27;;;80.55;;
73585;SDS011;61865;50.232;18.614;2022-11-25T00:32:58;167.10;;;82.00;;
73585;SDS011;61865;50.232;18.614;2022-11-25T00:35:20;146.10;;;75.00;;
73585;SDS011;61865;50.232;18.614;2022-11-25T00:37:43;133.85;;;68.03;;
73585;SDS011;61865;50.232;18.614;2022-11-25T00:40:06;146.55;;;70.28;;
73585;SDS011;61865;50.232;18.614;2022-11-25T00:42:28;148.02;;;72.00;;
73585;SDS011;61865;50.232;18.614;2022-11-25T00:45:19;126.70;;;62.38;;
73585;SDS011;61865;50.232;18.614;2022-11-25T00:47:41;124.35;;;64.20;;
73585;SDS011;61865;50.232;18.614;2022-11-25T00:50:03;122.35;;;63.20;;
73585;SDS011;61865;50.232;18.614;2022-11-25T00:52:26;128.52;;;62.90;;
73585;SDS011;61865;50.232;18.614;2022-11-25T00:54:50;123.15;;;61.60;;
73585;SDS011;61865;50.232;18.614;2022-11-25T00:57:13;127.70;;;63.72;;
73585;SDS011;61865;50.232;18.614;2022-11-25T00:59:35;119.43;;;60.28;;
73585;SDS011;61865;50.232;18.614;2022-11-25T01:01:58;142.15;;;63.17;;
73585;SDS011;61865;50.232;18.614;2022-11-25T01:04:20;135.23;;;65.45;;
73585;SDS011;61865;50.232;18.614;2022-11-25T01:06:42;129.82;;;64.72;;
73585;SDS011;61865;50.232;18.614;2022-11-25T01:09:04;128.93;;;62.22;;
73585;SDS011;61865;50.232;18.614;2022-11-25T01:11:29;131.65;;;64.68;;
73585;SDS011;61865;50.232;18.614;2022-11-25T01:13:51;140.80;;;65.63;;
73585;SDS011;61865;50.232;18.614;2022-11-25T01:16:16;142.90;;;66.30;;
73585;SDS011;61865;50.232;18.614;2022-11-25T01:18:39;145.32;;;67.97;;
73585;SDS011;61865;50.232;18.614;2022-11-25T01:21:04;125.47;;;62.67;;
73585;SDS011;61865;50.232;18.614;2022-11-25T01:23:27;145.52;;;67.75;;
73585;SDS011;61865;50.232;18.614;2022-11-25T01:25:48;137.20;;;64.70;;
73585;SDS011;61865;50.232;18.614;2022-11-25T01:28:12;118.47;;;57.05;;
73585;SDS011;61865;50.232;18.614;2022-11-25T01:30:34;104.32;;;53.45;;
73585;SDS011;61865;50.232;18.614;2022-11-25T01:32:56;113.18;;;55.40;;
73585;SDS011;61865;50.232;18.614;2022-11-25T01:35:18;107.55;;;54.83;;
73585;SDS011;61865;50.232;18.614;2022-11-25T01:37:39;112.32;;;56.85;;
73585;SDS011;61865;50.232;18.614;2022-11-25T01:40:01;119.70;;;57.20;;
73585;SDS011;61865;50.232;18.614;2022-11-25T01:42:26;100.32;;;55.08;;
73585;SDS011;61865;50.232;18.614;2022-11-25T01:47:47;113.03;;;57.17;;
73585;SDS011;61865;50.232;18.614;2022-11-25T01:50:09;98.72;;;50.95;;
73585;SDS011;61865;50.232;18.614;2022-11-25T01:52:35;119.10;;;63.00;;
73585;SDS011;61865;50.232;18.614;2022-11-25T01:55:01;129.05;;;60.92;;
73585;SDS011;61865;50.232;18.614;2022-11-25T01:57:29;124.55;;;61.13;;
73585;SDS011;61865;50.232;18.614;2022-11-25T01:59:56;118.07;;;60.85;;
73585;SDS011;61865;50.232;18.614;2022-11-25T02:02:21;135.27;;;64.78;;
73585;SDS011;61865;50.232;18.614;2022-11-25T02:04:44;125.28;;;60.00;;
73585;SDS011;61865;50.232;18.614;2022-11-25T02:07:08;114.80;;;56.53;;
73585;SDS011;61865;50.232;18.614;2022-11-25T02:09:33;120.97;;;61.63;;
73585;SDS011;61865;50.232;18.614;2022-11-25T02:11:57;131.88;;;63.83;;
73585;SDS011;61865;50.232;18.614;2022-11-25T02:14:21;111.72;;;56.90;;
73585;SDS011;61865;50.232;18.614;2022-11-25T02:16:43;119.75;;;58.15;;
73585;SDS011;61865;50.232;18.614;2022-11-25T02:19:05;132.07;;;65.93;;
73585;SDS011;61865;50.232;18.614;2022-11-25T02:21:35;135.30;;;66.30;;
73585;SDS011;61865;50.232;18.614;2022-11-25T02:24:05;127.05;;;61.67;;
73585;SDS011;61865;50.232;18.614;2022-11-25T02:26:34;125.75;;;59.40;;
73585;SDS011;61865;50.232;18.614;2022-11-25T02:28:56;117.07;;;59.08;;
73585;SDS011;61865;50.232;18.614;2022-11-25T02:31:18;121.75;;;57.28;;
73585;SDS011;61865;50.232;18.614;2022-11-25T02:33:41;126.75;;;62.08;;
73585;SDS011;61865;50.232;18.614;2022-11-25T02:36:03;132.95;;;60.95;;
73585;SDS011;61865;50.232;18.614;2022-11-25T02:38:29;124.95;;;59.33;;
73585;SDS011;61865;50.232;18.614;2022-11-25T02:40:56;118.75;;;58.83;;
73585;SDS011;61865;50.232;18.614;2022-11-25T02:43:24;129.30;;;57.08;;
73585;SDS011;61865;50.232;18.614;2022-11-25T02:45:49;116.43;;;55.58;;
73585;SDS011;61865;50.232;18.614;2022-11-25T02:48:15;117.90;;;56.85;;
73585;SDS011;61865;50.232;18.614;2022-11-25T02:50:37;123.60;;;60.95;;
73585;SDS011;61865;50.232;18.614;2022-11-25T02:52:59;106.63;;;55.60;;
73585;SDS011;61865;50.232;18.614;2022-11-25T02:55:21;113.80;;;59.15;;
73585;SDS011;61865;50.232;18.614;2022-11-25T02:57:43;125.80;;;61.03;;
73585;SDS011;61865;50.232;18.614;2022-11-25T03:00:07;121.07;;;60.72;;
73585;SDS011;61865;50.232;18.614;2022-11-25T03:02:29;122.32;;;58.30;;
73585;SDS011;61865;50.232;18.614;2022-11-25T03:04:51;117.20;;;58.83;;
73585;SDS011;61865;50.232;18.614;2022-11-25T03:07:13;130.18;;;61.72;;
73585;SDS011;61865;50.232;18.614;2022-11-25T03:09:35;139.68;;;67.97;;
73585;SDS011;61865;50.232;18.614;2022-11-25T03:11:57;132.68;;;64.35;;
73585;SDS011;61865;50.232;18.614;2022-11-25T03:14:36;137.25;;;69.75;;
73585;SDS011;61865;50.232;18.614;2022-11-25T03:16:59;136.95;;;63.38;;
73585;SDS011;61865;50.232;18.614;2022-11-25T03:19:21;134.05;;;66.78;;
73585;SDS011;61865;50.232;18.614;2022-11-25T03:21:43;139.07;;;63.78;;
73585;SDS011;61865;50.232;18.614;2022-11-25T03:24:05;132.48;;;63.13;;
73585;SDS011;61865;50.232;18.614;2022-11-25T03:26:27;132.57;;;61.55;;
73585;SDS011;61865;50.232;18.614;2022-11-25T03:28:49;117.35;;;61.53;;
73585;SDS011;61865;50.232;18.614;2022-11-25T03:31:11;115.32;;;58.00;;
73585;SDS011;61865;50.232;18.614;2022-11-25T03:33:34;113.85;;;56.20;;
73585;SDS011;61865;50.232;18.614;2022-11-25T03:35:56;114.65;;;56.90;;
73585;SDS011;61865;50.232;18.614;2022-11-25T03:38:18;105.88;;;53.88;;
73585;SDS011;61865;50.232;18.614;2022-11-25T03:40:40;110.63;;;52.53;;
73585;SDS011;61865;50.232;18.614;2022-11-25T03:43:03;108.15;;;53.53;;
73585;SDS011;61865;50.232;18.614;2022-11-25T03:45:25;109.03;;;52.63;;
73585;SDS011;61865;50.232;18.614;2022-11-25T03:47:47;107.53;;;52.58;;
73585;SDS011;61865;50.232;18.614;2022-11-25T03:50:11;113.70;;;52.35;;
73585;SDS011;61865;50.232;18.614;2022-11-25T03:52:34;104.35;;;51.38;;
73585;SDS011;61865;50.232;18.614;2022-11-25T03:54:56;104.60;;;49.80;;
73585;SDS011;61865;50.232;18.614;2022-11-25T03:57:18;96.60;;;48.47;;
73585;SDS011;61865;50.232;18.614;2022-11-25T03:59:40;100.97;;;50.00;;
73585;SDS011;61865;50.232;18.614;2022-11-25T04:02:02;100.63;;;49.35;;
73585;SDS011;61865;50.232;18.614;2022-11-25T04:04:24;97.88;;;48.45;;
73585;SDS011;61865;50.232;18.614;2022-11-25T04:06:47;99.07;;;50.60;;
73585;SDS011;61865;50.232;18.614;2022-11-25T04:09:09;99.45;;;50.47;;
73585;SDS011;61865;50.232;18.614;2022-11-25T04:11:32;115.25;;;57.08;;
73585;SDS011;61865;50.232;18.614;2022-11-25T04:14:11;114.82;;;55.67;;
73585;SDS011;61865;50.232;18.614;2022-11-25T04:16:33;104.43;;;52.75;;
73585;SDS011;61865;50.232;18.614;2022-11-25T04:18:55;102.60;;;52.75;;
73585;SDS011;61865;50.232;18.614;2022-11-25T04:21:17;109.25;;;56.35;;
73585;SDS011;61865;50.232;18.614;2022-11-25T04:23:40;105.30;;;55.88;;
73585;SDS011;61865;50.232;18.614;2022-11-25T04:26:02;104.95;;;56.65;;
73585;SDS011;61865;50.232;18.614;2022-11-25T04:28:24;115.22;;;60.22;;
73585;SDS011;61865;50.232;18.614;2022-11-25T04:30:46;107.35;;;58.00;;
73585;SDS011;61865;50.232;18.614;2022-11-25T04:33:08;110.60;;;57.03;;
73585;SDS011;61865;50.232;18.614;2022-11-25T04:35:30;109.30;;;53.30;;
73585;SDS011;61865;50.232;18.614;2022-11-25T04:37:52;111.85;;;56.53;;
73585;SDS011;61865;50.232;18.614;2022-11-25T04:40:15;113.43;;;56.10;;
73585;SDS011;61865;50.232;18.614;2022-11-25T04:42:37;109.18;;;56.45;;
73585;SDS011;61865;50.232;18.614;2022-11-25T04:44:59;111.70;;;56.58;;
73585;SDS011;61865;50.232;18.614;2022-11-25T04:47:23;110.50;;;56.20;;
73585;SDS011;61865;50.232;18.614;2022-11-25T04:49:45;103.07;;;53.90;;
73585;SDS011;61865;50.232;18.614;2022-11-25T04:52:07;114.28;;;54.40;;
73585;SDS011;61865;50.232;18.614;2022-11-25T04:54:29;100.10;;;52.47;;
73585;SDS011;61865;50.232;18.614;2022-11-25T04:56:52;109.13;;;55.15;;
73585;SDS011;61865;50.232;18.614;2022-11-25T04:59:14;118.57;;;60.35;;
73585;SDS011;61865;50.232;18.614;2022-11-25T05:02:01;143.77;;;68.57;;
73585;SDS011;61865;50.232;18.614;2022-11-25T05:04:23;163.60;;;78.78;;
73585;SDS011;61865;50.232;18.614;2022-11-25T05:06:45;196.23;;;91.63;;
73585;SDS011;61865;50.232;18.614;2022-11-25T05:09:10;175.45;;;83.63;;
73585;SDS011;61865;50.232;18.614;2022-11-25T05:11:32;153.20;;;73.93;;
73585;SDS011;61865;50.232;18.614;2022-11-25T05:13:55;125.70;;;63.50;;
73585;SDS011;61865;50.232;18.614;2022-11-25T05:16:17;116.07;;;58.90;;
73585;SDS011;61865;50.232;18.614;2022-11-25T05:18:39;129.18;;;59.38;;
73585;SDS011;61865;50.232;18.614;2022-11-25T05:21:01;112.07;;;56.15;;
73585;SDS011;61865;50.232;18.614;2022-11-25T05:23:24;114.65;;;58.10;;
73585;SDS011;61865;50.232;18.614;2022-11-25T05:25:46;121.53;;;63.17;;
73585;SDS011;61865;50.232;18.614;2022-11-25T05:28:08;133.13;;;63.65;;
73585;SDS011;61865;50.232;18.614;2022-11-25T05:30:31;129.10;;;62.35;;
73585;SDS011;61865;50.232;18.614;2022-11-25T05:32:53;127.80;;;62.35;;
73585;SDS011;61865;50.232;18.614;2022-11-25T05:35:15;130.27;;;64.53;;
73585;SDS011;61865;50.232;18.614;2022-11-25T05:37:37;132.98;;;64.40;;
73585;SDS011;61865;50.232;18.614;2022-11-25T05:39:59;126.13;;;64.10;;
73585;SDS011;61865;50.232;18.614;2022-11-25T05:42:21;114.88;;;59.05;;
73585;SDS011;61865;50.232;18.614;2022-11-25T05:44:43;125.30;;;60.47;;
73585;SDS011;61865;50.232;18.614;2022-11-25T05:47:07;122.18;;;59.60;;
73585;SDS011;61865;50.232;18.614;2022-11-25T05:49:29;139.23;;;66.82;;
73585;SDS011;61865;50.232;18.614;2022-11-25T05:51:50;146.15;;;70.65;;
73585;SDS011;61865;50.232;18.614;2022-11-25T05:54:12;143.25;;;71.30;;
73585;SDS011;61865;50.232;18.614;2022-11-25T05:56:35;165.90;;;79.13;;
73585;SDS011;61865;50.232;18.614;2022-11-25T05:58:57;137.88;;;68.63;;
73585;SDS011;61865;50.232;18.614;2022-11-25T06:01:20;127.95;;;65.30;;
73585;SDS011;61865;50.232;18.614;2022-11-25T06:03:44;128.63;;;60.10;;
73585;SDS011;61865;50.232;18.614;2022-11-25T06:06:06;121.85;;;59.65;;
73585;SDS011;61865;50.232;18.614;2022-11-25T06:08:29;103.10;;;55.25;;
73585;SDS011;61865;50.232;18.614;2022-11-25T06:10:52;98.90;;;50.40;;
73585;SDS011;61865;50.232;18.614;2022-11-25T06:13:14;91.65;;;48.95;;
73585;SDS011;61865;50.232;18.614;2022-11-25T06:15:39;121.30;;;60.20;;
73585;SDS011;61865;50.232;18.614;2022-11-25T06:18:01;110.18;;;57.15;;
73585;SDS011;61865;50.232;18.614;2022-11-25T06:20:25;113.88;;;57.78;;
73585;SDS011;61865;50.232;18.614;2022-11-25T06:22:47;110.22;;;57.50;;
73585;SDS011;61865;50.232;18.614;2022-11-25T06:25:09;97.95;;;50.53;;
73585;SDS011;61865;50.232;18.614;2022-11-25T06:27:31;102.40;;;52.38;;
73585;SDS011;61865;50.232;18.614;2022-11-25T06:29:53;98.28;;;54.40;;
73585;SDS011;61865;50.232;18.614;2022-11-25T06:32:15;124.18;;;61.10;;
73585;SDS011;61865;50.232;18.614;2022-11-25T06:34:37;112.63;;;60.08;;
73585;SDS011;61865;50.232;18.614;2022-11-25T06:37:03;121.57;;;64.20;;
73585;SDS011;61865;50.232;18.614;2022-11-25T06:39:25;122.88;;;63.63;;
73585;SDS011;61865;50.232;18.614;2022-11-25T06:41:46;119.80;;;63.65;;
73585;SDS011;61865;50.232;18.614;2022-11-25T06:44:08;107.80;;;59.45;;
73585;SDS011;61865;50.232;18.614;2022-11-25T06:46:30;105.57;;;58.22;;
73585;SDS011;61865;50.232;18.614;2022-11-25T06:48:52;117.07;;;59.88;;
73585;SDS011;61865;50.232;18.614;2022-11-25T06:51:15;113.50;;;57.88;;
73585;SDS011;61865;50.232;18.614;2022-11-25T06:53:38;117.90;;;58.67;;
73585;SDS011;61865;50.232;18.614;2022-11-25T06:56:02;122.13;;;60.67;;
73585;SDS011;61865;50.232;18.614;2022-11-25T06:58:25;123.55;;;61.90;;
73585;SDS011;61865;50.232;18.614;2022-11-25T07:00:47;118.95;;;64.65;;
73585;SDS011;61865;50.232;18.614;2022-11-25T07:03:09;128.38;;;66.78;;
73585;SDS011;61865;50.232;18.614;2022-11-25T07:05:30;136.07;;;65.95;;
73585;SDS011;61865;50.232;18.614;2022-11-25T07:07:52;133.77;;;65.55;;
73585;SDS011;61865;50.232;18.614;2022-11-25T07:10:16;116.57;;;59.55;;
73585;SDS011;61865;50.232;18.614;2022-11-25T07:12:41;112.97;;;56.80;;
73585;SDS011;61865;50.232;18.614;2022-11-25T07:15:03;119.07;;;55.92;;
73585;SDS011;61865;50.232;18.614;2022-11-25T07:17:26;116.43;;;59.50;;
73585;SDS011;61865;50.232;18.614;2022-11-25T07:19:47;128.35;;;60.25;;
73585;SDS011;61865;50.232;18.614;2022-11-25T07:22:09;116.30;;;58.58;;
73585;SDS011;61865;50.232;18.614;2022-11-25T07:24:31;107.20;;;57.45;;
73585;SDS011;61865;50.232;18.614;2022-11-25T07:26:55;112.13;;;55.50;;
73585;SDS011;61865;50.232;18.614;2022-11-25T07:29:17;107.65;;;55.78;;
73585;SDS011;61865;50.232;18.614;2022-11-25T07:31:40;112.82;;;55.03;;
73585;SDS011;61865;50.232;18.614;2022-11-25T07:34:03;117.50;;;57.28;;
73585;SDS011;61865;50.232;18.614;2022-11-25T07:36:27;111.18;;;55.20;;
73585;SDS011;61865;50.232;18.614;2022-11-25T07:38:50;105.13;;;53.45;;
73585;SDS011;61865;50.232;18.614;2022-11-25T07:41:13;107.10;;;53.08;;
73585;SDS011;61865;50.232;18.614;2022-11-25T07:43:38;104.13;;;50.95;;
73585;SDS011;61865;50.232;18.614;2022-11-25T07:46:07;95.32;;;48.88;;
73585;SDS011;61865;50.232;18.614;2022-11-25T07:48:30;97.63;;;47.13;;
73585;SDS011;61865;50.232;18.614;2022-11-25T07:50:52;99.50;;;48.92;;
73585;SDS011;61865;50.232;18.614;2022-11-25T07:53:14;95.32;;;48.03;;
73585;SDS011;61865;50.232;18.614;2022-11-25T07:55:36;95.32;;;47.97;;
73585;SDS011;61865;50.232;18.614;2022-11-25T07:57:58;89.03;;;47.92;;
73585;SDS011;61865;50.232;18.614;2022-11-25T08:00:21;93.05;;;47.67;;
73585;SDS011;61865;50.232;18.614;2022-11-25T08:02:43;87.30;;;46.65;;
73585;SDS011;61865;50.232;18.614;2022-11-25T08:05:06;93.40;;;45.45;;
73585;SDS011;61865;50.232;18.614;2022-11-25T08:07:28;91.28;;;45.90;;
73585;SDS011;61865;50.232;18.614;2022-11-25T08:09:50;89.13;;;45.28;;
73585;SDS011;61865;50.232;18.614;2022-11-25T08:12:12;90.38;;;46.88;;
73585;SDS011;61865;50.232;18.614;2022-11-25T08:14:34;93.30;;;48.78;;
73585;SDS011;61865;50.232;18.614;2022-11-25T08:16:58;95.88;;;46.75;;
73585;SDS011;61865;50.232;18.614;2022-11-25T08:19:19;94.75;;;44.88;;
73585;SDS011;61865;50.232;18.614;2022-11-25T08:21:41;91.22;;;48.75;;
73585;SDS011;61865;50.232;18.614;2022-11-25T08:24:04;81.63;;;42.30;;
73585;SDS011;61865;50.232;18.614;2022-11-25T08:26:27;90.90;;;44.25;;
73585;SDS011;61865;50.232;18.614;2022-11-25T08:28:50;89.72;;;42.30;;
73585;SDS011;61865;50.232;18.614;2022-11-25T08:31:13;74.90;;;40.70;;
73585;SDS011;61865;50.232;18.614;2022-11-25T08:33:38;84.68;;;43.10;;
73585;SDS011;61865;50.232;18.614;2022-11-25T08:36:01;78.63;;;41.13;;
73585;SDS011;61865;50.232;18.614;2022-11-25T08:38:23;73.82;;;40.35;;
73585;SDS011;61865;50.232;18.614;2022-11-25T08:40:45;85.60;;;41.45;;
73585;SDS011;61865;50.232;18.614;2022-11-25T08:43:07;85.40;;;43.90;;
73585;SDS011;61865;50.232;18.614;2022-11-25T08:45:29;89.75;;;42.00;;
73585;SDS011;61865;50.232;18.614;2022-11-25T08:47:51;75.63;;;37.97;;
73585;SDS011;61865;50.232;18.614;2022-11-25T08:50:15;65.97;;;36.22;;
73585;SDS011;61865;50.232;18.614;2022-11-25T08:52:37;65.75;;;35.17;;
73585;SDS011;61865;50.232;18.614;2022-11-25T08:54:58;66.07;;;34.50;;
73585;SDS011;61865;50.232;18.614;2022-11-25T08:57:20;71.38;;;35.03;;
73585;SDS011;61865;50.232;18.614;2022-11-25T08:59:42;73.88;;;36.38;;
73585;SDS011;61865;50.232;18.614;2022-11-25T09:02:05;69.60;;;37.58;;
73585;SDS011;61865;50.232;18.614;2022-11-25T09:04:28;67.20;;;35.10;;
73585;SDS011;61865;50.232;18.614;2022-11-25T09:06:51;60.65;;;34.88;;
73585;SDS011;61865;50.232;18.614;2022-11-25T09:09:13;68.80;;;34.92;;
73585;SDS011;61865;50.232;18.614;2022-11-25T09:11:35;67.20;;;35.65;;
73585;SDS011;61865;50.232;18.614;2022-11-25T09:13:57;57.65;;;32.78;;
73585;SDS011;61865;50.232;18.614;2022-11-25T09:16:19;70.78;;;34.67;;
73585;SDS011;61865;50.232;18.614;2022-11-25T09:18:41;62.97;;;33.35;;
73585;SDS011;61865;50.232;18.614;2022-11-25T09:21:08;70.78;;;35.15;;
73585;SDS011;61865;50.232;18.614;2022-11-25T09:23:32;52.88;;;30.40;;
73585;SDS011;61865;50.232;18.614;2022-11-25T09:25:56;54.40;;;31.92;;
73585;SDS011;61865;50.232;18.614;2022-11-25T09:28:18;60.47;;;33.33;;
73585;SDS011;61865;50.232;18.614;2022-11-25T09:30:40;61.55;;;31.77;;
73585;SDS011;61865;50.232;18.614;2022-11-25T09:33:02;53.85;;;30.15;;
73585;SDS011;61865;50.232;18.614;2022-11-25T09:35:24;49.60;;;29.83;;
73585;SDS011;61865;50.232;18.614;2022-11-25T09:37:46;59.58;;;31.35;;
73585;SDS011;61865;50.232;18.614;2022-11-25T09:40:11;56.47;;;31.83;;
73585;SDS011;61865;50.232;18.614;2022-11-25T09:42:39;58.60;;;31.65;;
73585;SDS011;61865;50.232;18.614;2022-11-25T09:45:26;60.67;;;33.05;;
73585;SDS011;61865;50.232;18.614;2022-11-25T09:48:19;58.08;;;31.38;;
73585;SDS011;61865;50.232;18.614;2022-11-25T09:50:52;54.42;;;30.38;;
73585;SDS011;61865;50.232;18.614;2022-11-25T09:53:26;56.92;;;31.25;;
73585;SDS011;61865;50.232;18.614;2022-11-25T09:56:04;53.78;;;29.92;;
73585;SDS011;61865;50.232;18.614;2022-11-25T09:58:33;53.43;;;30.67;;
73585;SDS011;61865;50.232;18.614;2022-11-25T10:00:57;54.30;;;30.38;;
73585;SDS011;61865;50.232;18.614;2022-11-25T10:03:23;54.22;;;30.73;;
73585;SDS011;61865;50.232;18.614;2022-11-25T10:05:56;58.53;;;31.65;;
73585;SDS011;61865;50.232;18.614;2022-11-25T10:08:22;52.22;;;30.02;;
73585;SDS011;61865;50.232;18.614;2022-11-25T10:10:49;55.25;;;30.27;;
73585;SDS011;61865;50.232;18.614;2022-11-25T10:13:21;57.50;;;30.30;;
73585;SDS011;61865;50.232;18.614;2022-11-25T10:15:49;50.15;;;29.05;;
73585;SDS011;61865;50.232;18.614;2022-11-25T10:18:12;47.05;;;29.27;;
73585;SDS011;61865;50.232;18.614;2022-11-25T10:20:41;55.63;;;28.65;;
73585;SDS011;61865;50.232;18.614;2022-11-25T10:23:04;50.53;;;29.45;;
73585;SDS011;61865;50.232;18.614;2022-11-25T10:25:33;56.58;;;29.50;;
73585;SDS011;61865;50.232;18.614;2022-11-25T10:27:59;54.50;;;29.55;;
73585;SDS011;61865;50.232;18.614;2022-11-25T10:30:23;50.63;;;28.75;;
73585;SDS011;61865;50.232;18.614;2022-11-25T10:32:48;51.08;;;28.90;;
73585;SDS011;61865;50.232;18.614;2022-11-25T10:35:17;48.67;;;27.95;;
73585;SDS011;61865;50.232;18.614;2022-11-25T10:37:44;48.17;;;26.65;;
73585;SDS011;61865;50.232;18.614;2022-11-25T10:40:15;53.15;;;29.33;;
73585;SDS011;61865;50.232;18.614;2022-11-25T10:42:37;55.42;;;28.60;;
73585;SDS011;61865;50.232;18.614;2022-11-25T10:44:59;50.08;;;27.92;;
73585;SDS011;61865;50.232;18.614;2022-11-25T10:47:33;53.40;;;30.88;;
73585;SDS011;61865;50.232;18.614;2022-11-25T10:50:03;56.20;;;28.58;;
73585;SDS011;61865;50.232;18.614;2022-11-25T10:52:36;51.05;;;26.60;;
73585;SDS011;61865;50.232;18.614;2022-11-25T10:55:07;48.92;;;26.33;;
73585;SDS011;61865;50.232;18.614;2022-11-25T10:57:31;44.95;;;26.40;;
73585;SDS011;61865;50.232;18.614;2022-11-25T10:59:54;47.33;;;23.45;;
73585;SDS011;61865;50.232;18.614;2022-11-25T11:02:20;38.53;;;22.83;;
73585;SDS011;61865;50.232;18.614;2022-11-25T11:04:51;44.17;;;22.75;;
73585;SDS011;61865;50.232;18.614;2022-11-25T11:07:16;37.35;;;21.83;;
73585;SDS011;61865;50.232;18.614;2022-11-25T11:09:38;42.70;;;22.73;;
73585;SDS011;61865;50.232;18.614;2022-11-25T11:12:12;45.30;;;23.45;;
73585;SDS011;61865;50.232;18.614;2022-11-25T11:14:38;40.72;;;23.52;;
73585;SDS011;61865;50.232;18.614;2022-11-25T11:17:00;42.65;;;23.50;;
73585;SDS011;61865;50.232;18.614;2022-11-25T11:19:22;42.47;;;23.80;;
73585;SDS011;61865;50.232;18.614;2022-11-25T11:21:47;34.95;;;22.02;;
73585;SDS011;61865;50.232;18.614;2022-11-25T11:24:21;38.63;;;21.50;;
73585;SDS011;61865;50.232;18.614;2022-11-25T11:26:45;41.45;;;23.45;;
73585;SDS011;61865;50.232;18.614;2022-11-25T11:29:22;32.95;;;20.90;;
73585;SDS011;61865;50.232;18.614;2022-11-25T11:31:44;38.67;;;21.15;;
73585;SDS011;61865;50.232;18.614;2022-11-25T11:34:28;42.75;;;23.17;;
73585;SDS011;61865;50.232;18.614;2022-11-25T11:37:20;42.17;;;24.40;;
73585;SDS011;61865;50.232;18.614;2022-11-25T11:39:57;44.47;;;26.20;;
73585;SDS011;61865;50.232;18.614;2022-11-25T11:42:38;40.90;;;22.98;;
73585;SDS011;61865;50.232;18.614;2022-11-25T11:45:11;41.83;;;23.52;;
73585;SDS011;61865;50.232;18.614;2022-11-25T11:47:48;44.58;;;23.77;;
73585;SDS011;61865;50.232;18.614;2022-11-25T11:50:24;43.03;;;23.55;;
73585;SDS011;61865;50.232;18.614;2022-11-25T11:52:54;40.03;;;22.08;;
73585;SDS011;61865;50.232;18.614;2022-11-25T11:55:22;36.83;;;21.33;;
73585;SDS011;61865;50.232;18.614;2022-11-25T11:57:59;38.22;;;21.98;;
73585;SDS011;61865;50.232;18.614;2022-11-25T12:00:25;41.78;;;21.58;;
73585;SDS011;61865;50.232;18.614;2022-11-25T12:02:53;41.35;;;23.50;;
73585;SDS011;61865;50.232;18.614;2022-11-25T12:05:21;35.90;;;20.33;;
73585;SDS011;61865;50.232;18.614;2022-11-25T12:07:46;34.88;;;20.67;;
73585;SDS011;61865;50.232;18.614;2022-11-25T12:10:23;36.60;;;19.60;;
73585;SDS011;61865;50.232;18.614;2022-11-25T12:12:49;30.98;;;18.25;;
73585;SDS011;61865;50.232;18.614;2022-11-25T12:15:15;30.25;;;16.77;;
73585;SDS011;61865;50.232;18.614;2022-11-25T12:17:43;30.38;;;18.30;;
73585;SDS011;61865;50.232;18.614;2022-11-25T12:20:13;31.60;;;18.10;;
73585;SDS011;61865;50.232;18.614;2022-11-25T12:22:39;30.60;;;16.90;;
73585;SDS011;61865;50.232;18.614;2022-11-25T12:25:09;27.85;;;16.42;;
73585;SDS011;61865;50.232;18.614;2022-11-25T12:27:36;31.55;;;16.10;;
73585;SDS011;61865;50.232;18.614;2022-11-25T12:30:02;30.98;;;16.05;;
73585;SDS011;61865;50.232;18.614;2022-11-25T12:32:39;31.83;;;16.92;;
73585;SDS011;61865;50.232;18.614;2022-11-25T12:35:14;27.60;;;15.80;;
73585;SDS011;61865;50.232;18.614;2022-11-25T12:37:42;30.60;;;16.08;;
73585;SDS011;61865;50.232;18.614;2022-11-25T12:40:11;31.42;;;17.10;;
73585;SDS011;61865;50.232;18.614;2022-11-25T12:42:36;32.08;;;16.33;;
73585;SDS011;61865;50.232;18.614;2022-11-25T12:45:01;30.08;;;17.58;;
73585;SDS011;61865;50.232;18.614;2022-11-25T12:47:26;30.23;;;16.65;;
73585;SDS011;61865;50.232;18.614;2022-11-25T12:49:49;26.98;;;14.52;;
73585;SDS011;61865;50.232;18.614;2022-11-25T12:52:17;31.10;;;16.75;;
73585;SDS011;61865;50.232;18.614;2022-11-25T12:55:01;29.80;;;17.05;;
73585;SDS011;61865;50.232;18.614;2022-11-25T12:57:36;32.97;;;16.58;;
73585;SDS011;61865;50.232;18.614;2022-11-25T13:00:23;29.23;;;16.08;;
73585;SDS011;61865;50.232;18.614;2022-11-25T13:02:57;32.17;;;17.77;;
73585;SDS011;61865;50.232;18.614;2022-11-25T13:05:40;27.45;;;16.05;;
73585;SDS011;61865;50.232;18.614;2022-11-25T13:08:20;29.45;;;16.50;;
73585;SDS011;61865;50.232;18.614;2022-11-25T13:10:56;28.98;;;16.48;;
73585;SDS011;61865;50.232;18.614;2022-11-25T13:13:38;31.98;;;16.83;;
73585;SDS011;61865;50.232;18.614;2022-11-25T13:16:09;32.72;;;15.70;;
73585;SDS011;61865;50.232;18.614;2022-11-25T13:18:32;27.55;;;14.40;;
73585;SDS011;61865;50.232;18.614;2022-11-25T13:21:04;32.85;;;16.23;;
73585;SDS011;61865;50.232;18.614;2022-11-25T13:23:28;27.65;;;15.25;;
73585;SDS011;61865;50.232;18.614;2022-11-25T13:25:52;25.90;;;16.65;;
73585;SDS011;61865;50.232;18.614;2022-11-25T13:28:35;33.45;;;16.38;;
73585;SDS011;61865;50.232;18.614;2022-11-25T13:33:57;30.80;;;17.27;;
73585;SDS011;61865;50.232;18.614;2022-11-25T13:36:42;30.60;;;18.00;;
73585;SDS011;61865;50.232;18.614;2022-11-25T13:39:09;33.45;;;19.02;;
73585;SDS011;61865;50.232;18.614;2022-11-25T13:41:35;29.17;;;18.30;;
73585;SDS011;61865;50.232;18.614;2022-11-25T13:44:05;31.17;;;18.67;;
73585;SDS011;61865;50.232;18.614;2022-11-25T13:46:39;28.80;;;17.90;;
73585;SDS011;61865;50.232;18.614;2022-11-25T13:49:03;33.10;;;17.70;;
73585;SDS011;61865;50.232;18.614;2022-11-25T13:51:27;34.10;;;17.73;;
73585;SDS011;61865;50.232;18.614;2022-11-25T13:53:50;33.97;;;18.13;;
73585;SDS011;61865;50.232;18.614;2022-11-25T13:56:14;31.73;;;17.10;;